createdAt,value
2023-04-20T00:01:28.503Z,1.00
2023-04-20T00:03:57.101Z,1.00
2023-04-20T00:06:29.522Z,1.00
2023-04-20T00:08:58.993Z,1.00
2023-04-20T00:11:27.994Z,1.00
2023-04-20T00:13:58.753Z,1.00
2023-04-20T00:16:26.814Z,1.00
2023-04-20T00:18:56.118Z,1.00
2023-04-20T00:21:24.466Z,1.00
2023-04-20T00:23:54.143Z,1.00
2023-04-20T00:26:22.187Z,1.00
2023-04-20T00:31:23.820Z,1.00
2023-04-20T00:33:51.958Z,1.00
2023-04-20T00:38:51.062Z,1.00
2023-04-20T00:41:20.312Z,1.00
2023-04-20T00:43:54.504Z,1.00
2023-04-20T00:46:24.051Z,1.00
2023-04-20T00:48:52.731Z,1.00
2023-04-20T00:51:22.315Z,1.00
2023-04-20T00:56:21.639Z,1.00
2023-04-20T00:58:49.740Z,1.00
2023-04-20T01:01:18.361Z,1.00
2023-04-20T01:03:49.313Z,1.00
2023-04-20T01:06:19.152Z,1.00
2023-04-20T01:08:49.786Z,1.00
2023-04-20T01:11:19.354Z,1.00
2023-04-20T01:16:18.303Z,1.00
2023-04-20T01:18:49.349Z,1.00
2023-04-20T01:21:19.477Z,1.00
2023-04-20T01:23:49.015Z,1.00
2023-04-20T01:26:20.338Z,1.00
2023-04-20T01:28:51.687Z,1.00
2023-04-20T01:31:21.204Z,1.00
2023-04-20T01:33:49.746Z,1.00
2023-04-20T01:36:17.960Z,1.00
2023-04-20T01:38:50.068Z,1.00
2023-04-20T01:41:19.378Z,1.00
2023-04-20T01:46:17.160Z,1.00
2023-04-20T01:48:45.338Z,1.00
2023-04-20T01:51:13.389Z,1.00
2023-04-20T01:53:43.880Z,1.00
2023-04-20T01:56:13.306Z,1.00
2023-04-20T01:58:41.414Z,1.00
2023-04-20T02:01:09.481Z,1.00
2023-04-20T02:06:08.048Z,1.00
2023-04-20T02:08:37.678Z,1.00
2023-04-20T02:11:06.474Z,1.00
2023-04-20T02:13:39.828Z,1.00
2023-04-20T02:18:38.578Z,1.00
2023-04-20T02:21:08.061Z,1.00
2023-04-20T02:23:36.250Z,1.00
2023-04-20T02:26:04.351Z,1.00
2023-04-20T02:28:33.724Z,1.00
2023-04-20T02:31:07.568Z,1.00
2023-04-20T02:33:35.718Z,1.00
2023-04-20T02:36:03.821Z,1.00
2023-04-20T02:38:33.985Z,1.00
2023-04-20T02:41:02.047Z,1.00
2023-04-20T02:43:31.852Z,1.00
2023-04-20T02:46:00.150Z,1.00
2023-04-20T02:48:30.790Z,1.00
2023-04-20T02:56:22.967Z,1.00
2023-04-20T02:58:57.219Z,1.00
2023-04-20T03:01:42.646Z,1.00
2023-04-20T03:04:16.618Z,1.00
2023-04-20T03:06:54.497Z,1.00
2023-04-20T03:09:30.104Z,1.00
2023-04-20T03:12:03.361Z,1.00
2023-04-20T03:17:21.997Z,1.00
2023-04-20T03:19:53.006Z,1.00
2023-04-20T03:22:22.361Z,1.00
2023-04-20T03:24:54.409Z,1.00
2023-04-20T03:27:43.226Z,1.00
2023-04-20T03:30:15.948Z,1.00
2023-04-20T03:32:47.387Z,1.00
2023-04-20T03:35:18.824Z,1.00
2023-04-20T03:37:48.119Z,1.00
2023-04-20T03:40:17.445Z,1.00
2023-04-20T03:45:15.144Z,1.00
2023-04-20T03:47:43.546Z,1.00
2023-04-20T03:50:13.509Z,1.00
2023-04-20T03:52:42.864Z,1.00
2023-04-20T03:55:12.036Z,1.00
2023-04-20T04:00:16.668Z,1.00
2023-04-20T04:02:48.709Z,1.00
2023-04-20T04:05:27.870Z,1.00
2023-04-20T04:07:58.490Z,1.00
2023-04-20T04:10:28.134Z,1.00
2023-04-20T04:15:27.475Z,1.00
2023-04-20T04:18:03.020Z,1.00
2023-04-20T04:20:34.556Z,1.00
2023-04-20T04:23:05.209Z,1.00
2023-04-20T04:25:40.890Z,1.00
2023-04-20T04:33:19.030Z,1.00
2023-04-20T04:35:50.412Z,1.00
2023-04-20T04:38:19.991Z,1.00
2023-04-20T04:40:53.536Z,1.00
2023-04-20T04:43:24.261Z,1.00
2023-04-20T04:46:09.755Z,11.50
2023-04-20T04:48:42.192Z,22.40
2023-04-20T04:51:11.975Z,1.00
2023-04-20T04:53:46.257Z,44.40
2023-04-20T04:56:18.531Z,55.80
2023-04-20T04:58:48.009Z,63.60
2023-04-20T05:01:17.282Z,74.70
2023-04-20T05:03:48.098Z,81.90
2023-04-20T05:06:16.320Z,88.40
2023-04-20T05:08:48.763Z,90.30
2023-04-20T05:11:18.254Z,91.90
2023-04-20T05:16:19.338Z,87.30
2023-04-20T05:21:15.993Z,78.80
2023-04-20T05:23:46.665Z,72.10
2023-04-20T05:26:16.025Z,75.70
2023-04-20T05:28:44.039Z,65.00
2023-04-20T05:31:12.129Z,68.20
2023-04-20T05:33:40.403Z,61.70
2023-04-20T05:36:12.162Z,3.90
2023-04-20T05:38:41.437Z,54.90
2023-04-20T05:41:13.429Z,45.80
2023-04-20T05:43:42.645Z,38.40
2023-04-20T05:46:10.910Z,27.40
2023-04-20T05:48:40.240Z,20.80
2023-04-20T05:51:09.619Z,18.20
2023-04-20T05:53:38.128Z,11.30
2023-04-20T05:56:07.284Z,7.00
2023-04-20T05:58:38.460Z,1.80
2023-04-20T06:01:08.997Z,1.00
2023-04-20T06:03:38.429Z,1.00
2023-04-20T06:06:08.484Z,1.00
2023-04-20T06:08:36.528Z,1.00
2023-04-20T06:11:05.938Z,1.00
2023-04-20T06:16:10.552Z,1.00
2023-04-20T06:18:39.848Z,1.00
2023-04-20T06:21:11.441Z,1.00
2023-04-20T06:23:40.946Z,1.00
2023-04-20T06:26:10.386Z,1.00
2023-04-20T06:28:42.265Z,1.00
2023-04-20T06:31:10.419Z,1.00
2023-04-20T06:33:38.634Z,1.00
2023-04-20T06:36:08.405Z,1.00
2023-04-20T06:38:36.509Z,1.00
2023-04-20T06:41:06.113Z,1.00
2023-04-20T06:43:34.267Z,1.00
2023-04-20T06:46:06.086Z,1.00
2023-04-20T06:48:35.621Z,1.00
2023-04-20T06:51:05.272Z,1.00
2023-04-20T06:53:35.051Z,1.00
2023-04-20T06:56:05.585Z,1.00
2023-04-20T06:58:34.844Z,1.00
2023-04-20T07:01:06.445Z,1.00
2023-04-20T07:03:35.848Z,1.00
2023-04-20T07:06:05.202Z,1.00
2023-04-20T07:08:34.673Z,1.00
2023-04-20T07:11:05.131Z,1.00
2023-04-20T07:13:34.030Z,1.00
2023-04-20T07:16:02.579Z,1.00
2023-04-20T07:18:35.286Z,1.00
2023-04-20T07:23:33.701Z,1.00
2023-04-20T07:26:02.985Z,1.00
2023-04-20T07:28:31.041Z,1.00
2023-04-20T07:30:59.437Z,1.00
2023-04-20T07:33:27.759Z,1.00
2023-04-20T07:35:59.751Z,1.00
2023-04-20T07:38:29.082Z,1.00
2023-04-20T07:41:05.487Z,1.00
2023-04-20T07:43:33.875Z,1.00
2023-04-20T07:46:02.226Z,1.00
2023-04-20T07:48:31.951Z,1.00
2023-04-20T07:51:02.754Z,1.00
2023-04-20T07:53:31.168Z,1.00
2023-04-20T07:56:00.551Z,1.00
2023-04-20T07:58:29.767Z,1.00
2023-04-20T08:01:00.405Z,1.00
2023-04-20T08:03:28.988Z,1.00
2023-04-20T08:05:58.422Z,1.00
2023-04-20T08:08:31.133Z,1.00
2023-04-20T08:11:00.509Z,1.00
2023-04-20T08:13:29.134Z,1.00
2023-04-20T08:15:58.744Z,1.00
2023-04-20T08:18:30.359Z,1.00
2023-04-20T08:20:59.645Z,1.00
2023-04-20T08:23:29.442Z,1.00
2023-04-20T08:25:58.705Z,1.00
2023-04-20T08:28:33.310Z,1.00
2023-04-20T08:31:02.929Z,1.00
2023-04-20T08:33:32.497Z,1.00
2023-04-20T08:36:01.996Z,1.00
2023-04-20T08:38:34.200Z,1.00
2023-04-20T08:41:03.844Z,1.00
2023-04-20T08:43:33.046Z,1.00
2023-04-20T08:46:02.838Z,1.00
2023-04-20T08:48:36.840Z,1.00
2023-04-20T08:51:08.599Z,1.00
2023-04-20T08:53:38.726Z,1.00
2023-04-20T08:56:09.486Z,1.00
2023-04-20T08:58:38.572Z,1.00
2023-04-20T09:01:07.158Z,1.00
2023-04-20T09:03:39.321Z,1.00
2023-04-20T09:06:17.654Z,1.00
2023-04-20T09:08:48.584Z,1.00
2023-04-20T09:11:25.654Z,1.00
2023-04-20T09:14:04.557Z,1.00
2023-04-20T09:16:35.252Z,1.00
2023-04-20T09:19:03.504Z,1.00
2023-04-20T09:21:33.899Z,1.00
2023-04-20T09:24:06.888Z,1.00
2023-04-20T09:26:37.541Z,1.00
2023-04-20T09:29:16.937Z,1.00
2023-04-20T09:31:46.348Z,1.00
2023-04-20T09:34:16.283Z,1.00
2023-04-20T09:36:51.168Z,1.00
2023-04-20T09:39:22.738Z,1.00
2023-04-20T09:41:54.407Z,1.00
2023-04-20T09:44:23.755Z,1.00
2023-04-20T09:46:54.063Z,1.00
2023-04-20T09:49:23.883Z,1.00
2023-04-20T09:51:53.602Z,1.00
2023-04-20T09:54:24.878Z,1.00
2023-04-20T09:56:58.224Z,1.00
2023-04-20T09:59:27.185Z,1.00
2023-04-20T10:01:56.648Z,1.00
2023-04-20T10:04:26.258Z,1.00
2023-04-20T10:06:57.949Z,1.00
2023-04-20T10:09:28.564Z,1.00
2023-04-20T10:12:13.483Z,1.00
2023-04-20T10:14:41.603Z,1.00
2023-04-20T10:17:11.470Z,1.00
2023-04-20T10:19:41.527Z,1.00
2023-04-20T10:22:11.118Z,1.00
2023-04-20T10:24:41.072Z,1.00
2023-04-20T10:27:19.298Z,1.00
2023-04-20T10:29:47.911Z,1.00
2023-04-20T10:32:26.824Z,1.00
2023-04-20T10:35:05.755Z,1.00
2023-04-20T10:37:36.244Z,1.00
2023-04-20T10:40:10.077Z,1.00
2023-04-20T10:42:44.399Z,1.00
2023-04-20T10:45:13.832Z,1.00
2023-04-20T10:47:45.150Z,1.00
2023-04-20T10:50:19.220Z,1.00
2023-04-20T10:52:49.695Z,1.00
2023-04-20T10:55:26.289Z,1.00
2023-04-20T10:57:55.501Z,1.00
2023-04-20T11:00:30.746Z,1.00
2023-04-20T11:03:00.172Z,1.00
2023-04-20T11:05:30.486Z,1.00
2023-04-20T11:08:02.097Z,1.00
2023-04-20T11:10:43.467Z,1.00
2023-04-20T11:13:22.558Z,1.00
2023-04-20T11:15:55.210Z,1.00
2023-04-20T11:18:23.306Z,1.00
2023-04-20T11:20:53.152Z,1.00
2023-04-20T11:23:21.980Z,1.00
2023-04-20T11:25:59.485Z,1.00
2023-04-20T11:28:34.546Z,1.00
2023-04-20T11:31:02.976Z,1.00
2023-04-20T11:33:34.347Z,1.00
2023-04-20T11:36:04.212Z,1.00
2023-04-20T11:38:34.386Z,1.00
2023-04-20T11:41:07.917Z,1.00
2023-04-20T11:43:37.240Z,1.00
2023-04-20T11:46:15.667Z,1.00
2023-04-20T11:48:44.022Z,1.00
2023-04-20T11:51:13.681Z,1.00
2023-04-20T11:53:43.114Z,1.00
2023-04-20T11:56:12.539Z,1.00
2023-04-20T11:58:40.984Z,1.00
2023-04-20T12:01:17.526Z,1.00
2023-04-20T12:03:48.261Z,1.00
2023-04-20T12:06:17.803Z,1.00
2023-04-20T12:08:48.041Z,1.00
2023-04-20T12:11:18.794Z,1.00
2023-04-20T12:13:48.059Z,1.00
2023-04-20T12:16:17.667Z,1.00
2023-04-20T12:18:47.157Z,1.00
2023-04-20T12:21:16.469Z,1.00
2023-04-20T12:23:46.658Z,1.00
2023-04-20T12:26:16.731Z,1.00
2023-04-20T12:28:48.087Z,1.00
2023-04-20T12:31:17.537Z,1.00
2023-04-20T12:33:45.704Z,1.00
2023-04-20T12:36:14.984Z,1.00
2023-04-20T12:38:43.250Z,1.00
2023-04-20T12:41:16.471Z,1.00
2023-04-20T12:43:47.123Z,1.00
2023-04-20T12:46:17.809Z,1.00
2023-04-20T12:58:00.798Z,1.00
2023-04-20T13:00:31.555Z,1.00
2023-04-20T13:03:01.133Z,1.00
2023-04-20T13:05:32.515Z,1.00
2023-04-20T13:08:01.796Z,1.00
2023-04-20T13:10:32.310Z,1.00
2023-04-20T13:13:02.145Z,1.00
2023-04-20T13:18:06.974Z,1.00
2023-04-20T13:20:37.602Z,1.00
2023-04-20T13:23:06.089Z,1.00
2023-04-20T13:25:35.435Z,1.00
2023-04-20T13:28:04.978Z,1.00
2023-04-20T13:30:34.568Z,1.00
2023-04-20T13:33:05.044Z,1.00
2023-04-20T13:35:36.252Z,1.00
2023-04-20T13:38:06.288Z,1.00
2023-04-20T13:40:35.772Z,1.00
2023-04-20T13:43:05.113Z,1.00
2023-04-20T13:45:34.636Z,1.00
2023-04-20T13:48:03.994Z,1.00
2023-04-20T13:50:32.383Z,1.00
2023-04-20T13:53:02.986Z,1.00
2023-04-20T13:55:31.140Z,1.00
2023-04-20T13:58:00.532Z,1.00
2023-04-20T14:00:30.076Z,1.00
2023-04-20T14:02:59.562Z,1.00
2023-04-20T14:05:29.591Z,1.00
2023-04-20T14:08:01.329Z,1.00
2023-04-20T14:10:30.868Z,1.00
2023-04-20T14:13:01.246Z,1.00
2023-04-20T14:15:30.085Z,1.00
2023-04-20T14:18:01.304Z,1.00
2023-04-20T14:20:32.079Z,1.00
2023-04-20T14:23:00.445Z,1.00
2023-04-20T14:25:30.007Z,1.00
2023-04-20T14:27:59.391Z,1.00
2023-04-20T14:30:27.462Z,1.00
2023-04-20T14:32:56.790Z,1.00
2023-04-20T14:35:29.539Z,1.00
2023-04-20T14:38:00.073Z,1.00
2023-04-20T14:40:28.195Z,1.00
2023-04-20T14:42:57.514Z,1.00
2023-04-20T14:45:27.102Z,1.00
2023-04-20T14:47:57.285Z,1.00
2023-04-20T14:50:30.083Z,1.00
2023-04-20T14:52:58.107Z,1.00
2023-04-20T14:55:27.355Z,1.00
2023-04-20T14:57:58.314Z,1.00
2023-04-20T15:00:30.645Z,1.00
2023-04-20T15:02:59.674Z,1.00
2023-04-20T15:05:32.839Z,1.00
2023-04-20T15:08:02.454Z,1.00
2023-04-20T15:10:33.654Z,1.00
2023-04-20T15:13:03.682Z,1.00
2023-04-20T15:15:46.897Z,1.00
2023-04-20T15:18:17.931Z,1.00
2023-04-20T15:20:49.852Z,1.00
2023-04-20T15:23:17.868Z,1.00
2023-04-20T15:25:47.151Z,1.00
2023-04-20T15:28:16.688Z,1.00
2023-04-20T15:30:45.826Z,1.00
2023-04-20T15:33:13.967Z,1.00
2023-04-20T15:35:44.472Z,1.00
2023-04-20T15:38:13.825Z,1.00
2023-04-20T15:40:43.372Z,1.00
2023-04-20T15:43:11.392Z,1.00
2023-04-20T15:45:44.206Z,1.00
2023-04-20T15:48:14.389Z,1.00
2023-04-20T15:50:43.754Z,1.00
2023-04-20T15:53:14.350Z,1.00
2023-04-20T15:55:43.906Z,1.00
2023-04-20T15:58:11.993Z,1.00
2023-04-20T16:00:43.002Z,1.00
2023-04-20T16:03:11.416Z,1.00
2023-04-20T16:05:41.065Z,1.00
2023-04-20T16:08:09.148Z,1.00
2023-04-20T16:10:40.944Z,1.00
2023-04-20T16:13:10.255Z,1.00
2023-04-20T16:15:39.901Z,1.00
2023-04-20T16:18:07.976Z,1.00
2023-04-20T16:20:38.386Z,1.00
2023-04-20T16:23:08.617Z,1.00
2023-04-20T16:25:38.440Z,1.00
2023-04-20T16:28:08.597Z,1.00
2023-04-20T16:30:38.513Z,1.00
2023-04-20T16:33:07.853Z,1.00
2023-04-20T16:35:38.391Z,1.00
2023-04-20T16:38:10.233Z,1.00
2023-04-20T16:40:40.261Z,1.00
2023-04-20T16:43:09.717Z,1.00
2023-04-20T16:45:40.225Z,1.00
2023-04-20T16:50:41.551Z,1.00
2023-04-20T16:53:10.819Z,1.00
2023-04-20T16:55:40.080Z,1.00
2023-04-20T16:58:09.689Z,1.00
2023-04-20T17:00:38.091Z,1.00
2023-04-20T17:03:10.416Z,1.00
2023-04-20T17:05:41.845Z,1.00
2023-04-20T17:08:11.783Z,1.00
2023-04-20T17:10:41.134Z,1.00
2023-04-20T17:13:11.776Z,1.00
2023-04-20T17:15:42.608Z,1.00
2023-04-20T17:18:10.824Z,1.00
2023-04-20T17:20:41.453Z,1.00
2023-04-20T17:23:10.912Z,1.00
2023-04-20T17:28:11.524Z,1.00
2023-04-20T17:30:40.981Z,1.00
2023-04-20T17:33:12.224Z,1.00
2023-04-20T17:35:41.721Z,1.00
2023-04-20T17:38:09.787Z,1.00
2023-04-20T17:40:39.512Z,1.00
2023-04-20T17:43:07.564Z,1.00
2023-04-20T17:45:38.262Z,1.00
2023-04-20T17:48:07.199Z,1.00
2023-04-20T17:50:38.079Z,1.00
2023-04-20T17:53:08.461Z,1.00
2023-04-20T17:55:37.966Z,1.00
2023-04-20T17:58:05.998Z,1.00
2023-04-20T18:00:36.476Z,1.00
2023-04-20T18:03:05.973Z,1.00
2023-04-20T18:05:35.635Z,1.00
2023-04-20T18:08:05.196Z,1.00
2023-04-20T18:10:34.226Z,1.00
2023-04-20T18:13:03.467Z,1.00
2023-04-20T18:15:31.636Z,1.00
2023-04-20T18:18:00.954Z,1.00
2023-04-20T18:20:33.808Z,1.00
2023-04-20T18:23:04.450Z,1.00
2023-04-20T18:25:32.549Z,1.00
2023-04-20T18:28:01.856Z,1.00
2023-04-20T18:30:30.336Z,1.00
2023-04-20T18:32:58.828Z,1.00
2023-04-20T18:35:28.308Z,1.00
2023-04-20T18:37:58.921Z,1.00
2023-04-20T18:40:28.146Z,1.00
2023-04-20T18:42:56.296Z,1.00
2023-04-20T18:45:26.022Z,1.00
2023-04-20T18:47:57.184Z,1.00
2023-04-20T18:50:25.549Z,1.00
2023-04-20T18:52:54.817Z,1.00
2023-04-20T18:55:25.644Z,1.00
2023-04-20T19:00:24.403Z,1.00
2023-04-20T19:02:55.150Z,1.00
2023-04-20T19:05:25.251Z,1.00
2023-04-20T19:07:55.595Z,1.00
2023-04-20T19:10:26.623Z,1.00
2023-04-20T19:12:56.989Z,1.00
2023-04-20T19:15:26.262Z,1.00
2023-04-20T19:17:56.564Z,1.00
2023-04-20T19:20:26.902Z,1.00
2023-04-20T19:22:56.432Z,1.00
2023-04-20T19:25:27.137Z,1.00
2023-04-20T19:27:57.813Z,1.00
2023-04-20T19:30:27.400Z,1.00
2023-04-20T19:32:56.956Z,1.00
2023-04-20T19:35:26.432Z,1.00
2023-04-20T19:37:56.910Z,1.00
2023-04-20T19:40:28.356Z,1.00
2023-04-20T19:42:58.947Z,1.00
2023-04-20T19:45:28.327Z,1.00
2023-04-20T19:47:59.121Z,1.00
2023-04-20T19:50:28.646Z,1.00
2023-04-20T19:52:58.784Z,1.00
2023-04-20T19:55:29.474Z,1.00
2023-04-20T19:57:58.835Z,1.00
2023-04-20T20:00:28.077Z,1.00
2023-04-20T20:02:57.464Z,1.00
2023-04-20T20:05:26.839Z,1.00
2023-04-20T20:07:56.119Z,1.00
2023-04-20T20:10:25.623Z,1.00
2023-04-20T20:12:56.191Z,1.00
2023-04-20T20:15:24.680Z,1.00
2023-04-20T20:17:55.555Z,1.00
2023-04-20T20:20:23.847Z,1.00
2023-04-20T20:22:53.203Z,1.00
2023-04-20T20:25:21.534Z,1.00
2023-04-20T20:27:52.168Z,1.00
2023-04-20T20:30:22.920Z,1.00
2023-04-20T20:32:52.270Z,1.00
2023-04-20T20:35:22.596Z,1.00
2023-04-20T20:37:55.524Z,1.00
2023-04-20T20:40:25.329Z,1.00
2023-04-20T20:42:54.640Z,1.00
2023-04-20T20:45:25.749Z,1.00
2023-04-20T20:50:26.375Z,1.00
2023-04-20T20:52:54.810Z,1.00
2023-04-20T20:55:24.325Z,1.00
2023-04-20T20:57:52.384Z,1.00
2023-04-20T21:02:52.869Z,1.00
2023-04-20T21:05:22.807Z,1.00
2023-04-20T21:07:52.440Z,1.00
2023-04-20T21:10:20.536Z,1.00
2023-04-20T21:15:18.665Z,1.00
2023-04-20T21:17:49.233Z,1.00
2023-04-20T21:20:20.205Z,1.00
2023-04-20T21:22:50.680Z,1.00
2023-04-20T21:25:18.729Z,1.00
2023-04-20T21:27:49.388Z,1.00
2023-04-20T21:30:18.702Z,1.00
2023-04-20T21:32:46.767Z,1.00
2023-04-20T21:35:16.073Z,1.00
2023-04-20T21:37:47.937Z,1.00
2023-04-20T21:40:17.224Z,1.00
2023-04-20T21:42:46.493Z,1.00
2023-04-20T21:45:15.876Z,1.00
2023-04-20T21:47:46.697Z,1.00
2023-04-20T21:50:16.205Z,1.00
2023-04-20T21:52:46.863Z,1.00
2023-04-20T21:55:16.042Z,1.00
2023-04-20T21:57:45.259Z,1.00
2023-04-20T22:00:15.464Z,1.00
2023-04-20T22:02:45.834Z,1.00
2023-04-20T22:05:15.258Z,1.00
2023-04-20T22:07:45.067Z,1.00
2023-04-20T22:10:15.886Z,1.00
2023-04-20T22:12:45.165Z,1.00
2023-04-20T22:15:15.758Z,1.00
2023-04-20T22:17:46.369Z,1.00
2023-04-20T22:20:19.081Z,1.00
2023-04-20T22:25:20.536Z,1.00
2023-04-20T22:27:49.777Z,1.00
2023-04-20T22:30:18.091Z,1.00
2023-04-20T22:32:47.460Z,1.00
2023-04-20T22:35:16.830Z,1.00
2023-04-20T22:37:47.354Z,1.00
2023-04-20T22:40:15.433Z,1.00
2023-04-20T22:42:47.225Z,1.00
2023-04-20T22:45:16.596Z,1.00
2023-04-20T22:47:47.293Z,1.00
2023-04-20T22:50:15.774Z,1.00
2023-04-20T22:52:43.926Z,1.00
2023-04-20T22:55:12.613Z,1.00
2023-04-20T22:57:43.094Z,1.00
2023-04-20T23:00:14.491Z,1.00
2023-04-20T23:02:44.033Z,1.00
2023-04-20T23:05:12.268Z,1.00
2023-04-20T23:07:41.699Z,1.00
2023-04-20T23:10:11.878Z,8.20
2023-04-20T23:12:42.300Z,14.40
2023-04-20T23:15:12.825Z,29.80
2023-04-20T23:17:43.430Z,56.50
2023-04-20T23:20:14.342Z,92.40
2023-04-20T23:22:42.461Z,59.00
2023-04-20T23:27:39.448Z,99.90
2023-04-20T23:30:09.683Z,99.90
2023-04-20T23:32:41.286Z,99.90
2023-04-20T23:35:11.204Z,99.90
2023-04-20T23:37:41.708Z,99.90
2023-04-20T23:40:11.298Z,99.90
2023-04-20T23:42:41.848Z,99.90
2023-04-20T23:45:11.245Z,99.90
2023-04-20T23:47:41.276Z,99.90
2023-04-20T23:50:10.557Z,99.90
2023-04-20T23:52:38.694Z,99.90
2023-04-20T23:55:09.247Z,99.90
2023-04-20T23:57:38.475Z,99.90
